Time;durP1;ratioP1;P1;durP2;ratioP2;P2;SDS_P1;SDS_P2;PMS_P1;PMS_P2;Temp;Humidity;BMP_temperature;BMP_pressure;BME280_temperature;BME280_humidity;BME280_pressure;Samples;Min_cycle;Max_cycle;Signal;HPM_P1;HPM_P2
2023/03/21 00:01:45;;;;;;;96.87;52.30;;;;;;;4.25;74.84;100529.04;123930;1105;103401;-74
2023/03/21 00:04:17;;;;;;;101.40;56.90;;;;;;;4.23;74.95;100520.27;123958;1105;104297;-74
2023/03/21 00:06:48;;;;;;;103.43;58.63;;;;;;;4.22;75.26;100522.77;123927;1104;104344;-74
2023/03/21 00:09:19;;;;;;;113.90;61.50;;;;;;;4.21;75.13;100519.28;123976;1105;103995;-74
2023/03/21 00:11:51;;;;;;;108.33;61.37;;;;;;;4.23;75.72;100521.98;123938;1105;102920;-74
2023/03/21 00:14:22;;;;;;;107.67;60.80;;;;;;;4.23;74.85;100520.27;124004;1105;101842;-74
2023/03/21 00:16:53;;;;;;;105.05;59.50;;;;;;;4.24;75.55;100523.75;123970;1105;104383;-74
2023/03/21 00:19:28;;;;;;;102.90;57.07;;;;;;;4.23;74.99;100519.38;123895;1104;104424;-74
2023/03/21 00:22:01;;;;;;;109.40;58.97;;;;;;;4.20;75.51;100520.08;123950;1105;104264;-75
2023/03/21 00:24:32;;;;;;;98.27;57.43;;;;;;;4.19;75.27;100518.30;123950;1105;104194;-74
2023/03/21 00:27:03;;;;;;;99.40;57.33;;;;;;;4.19;75.81;100515.71;123981;1105;104185;-74
2023/03/21 00:29:34;;;;;;;97.57;54.43;;;;;;;4.19;75.58;100515.71;123930;1105;104249;-75
2023/03/21 00:32:06;;;;;;;100.27;56.77;;;;;;;4.18;75.18;100523.41;124094;1105;102315;-74
2023/03/21 00:34:38;;;;;;;107.57;57.67;;;;;;;4.17;75.57;100519.89;123992;1105;104195;-74
2023/03/21 00:37:10;;;;;;;104.30;56.47;;;;;;;4.17;75.31;100519.00;124220;1105;104179;-74
2023/03/21 00:39:47;;;;;;;100.50;57.93;;;;;;;4.18;75.73;100511.31;123901;1105;104347;-74
2023/03/21 00:42:19;;;;;;;107.03;58.17;;;;;;;4.18;75.36;100515.61;123978;1105;104230;-74
2023/03/21 00:44:50;;;;;;;101.37;56.03;;;;;;;4.16;75.38;100517.20;123909;1105;104207;-74
2023/03/21 00:47:22;;;;;;;95.43;54.57;;;;;;;4.11;75.90;100516.91;123958;1105;102332;-75
2023/03/21 00:49:54;;;;;;;99.63;56.07;;;;;;;4.08;76.08;100519.32;123962;1105;104323;-74
2023/03/21 00:52:26;;;;;;;98.23;55.20;;;;;;;4.04;75.62;100522.55;123921;1105;104245;-74
2023/03/21 00:54:57;;;;;;;106.97;57.23;;;;;;;3.96;75.77;100511.69;123986;1105;104188;-74
2023/03/21 00:57:29;;;;;;;102.10;56.63;;;;;;;3.90;75.69;100514.78;123933;1104;104204;-74
2023/03/21 01:00:02;;;;;;;96.47;54.83;;;;;;;3.82;75.84;100522.88;124000;1105;104238;-74
2023/03/21 01:02:36;;;;;;;95.80;53.33;;;;;;;3.80;75.26;100514.11;124917;1105;104284;-74
2023/03/21 01:05:09;;;;;;;99.35;55.20;;;;;;;3.76;76.37;100507.84;123883;1105;104181;-74
2023/03/21 01:07:41;;;;;;;95.23;54.10;;;;;;;3.74;76.10;100504.23;123994;1104;104431;-74
2023/03/21 01:10:14;;;;;;;101.57;54.97;;;;;;;3.72;75.53;100498.05;123922;1105;102063;-74
2023/03/21 01:12:45;;;;;;;96.93;54.60;;;;;;;3.70;76.24;100487.58;123904;1105;104240;-74
2023/03/21 01:15:16;;;;;;;104.20;52.53;;;;;;;3.67;75.82;100489.09;123926;1105;104185;-74
2023/03/21 01:17:48;;;;;;;93.30;52.93;;;;;;;3.66;76.15;100484.69;124013;1105;104182;-74
2023/03/21 01:20:20;;;;;;;92.75;52.70;;;;;;;3.67;75.98;100491.69;123927;1105;104214;-74
2023/03/21 01:22:51;;;;;;;96.50;52.90;;;;;;;3.69;76.34;100493.55;123916;1103;104402;-74
2023/03/21 01:25:23;;;;;;;96.43;53.40;;;;;;;3.70;76.35;100477.19;123912;1105;104310;-74
2023/03/21 01:27:54;;;;;;;101.27;54.70;;;;;;;3.73;76.76;100473.91;123955;1105;104354;-74
2023/03/21 01:30:26;;;;;;;102.73;54.93;;;;;;;3.74;75.70;100479.19;123904;1105;104220;-74
2023/03/21 01:32:57;;;;;;;97.83;54.77;;;;;;;3.75;76.32;100478.38;125255;1105;104182;-74
2023/03/21 01:35:28;;;;;;;94.90;52.23;;;;;;;3.77;76.43;100474.20;123928;1105;104092;-74
2023/03/21 01:38:00;;;;;;;101.87;53.53;;;;;;;3.82;76.69;100473.56;123877;1105;104421;-74
2023/03/21 01:40:32;;;;;;;96.10;53.70;;;;;;;3.82;76.22;100470.97;123890;1105;104240;-74
2023/03/21 01:43:23;;;;;;;99.13;54.93;;;;;;;3.85;76.83;100482.45;123999;1105;104207;-74
2023/03/21 01:46:25;;;;;;;99.70;54.90;;;;;;;3.89;76.87;100468.84;123962;1105;104249;-74
2023/03/21 01:49:33;;;;;;;101.13;54.70;;;;;;;3.92;76.63;100468.15;123829;1105;104192;-74
2023/03/21 01:52:17;;;;;;;91.93;53.57;;;;;;;3.92;76.62;100469.04;123919;1105;101940;-74
2023/03/21 01:54:50;;;;;;;94.10;54.70;;;;;;;3.92;76.79;100460.36;123905;1105;102448;-74
2023/03/21 01:57:31;;;;;;;95.20;53.10;;;;;;;3.89;76.48;100461.06;123959;1105;101849;-74
2023/03/21 02:00:11;;;;;;;91.03;52.10;;;;;;;3.91;76.97;100456.88;123892;1105;104252;-74
2023/03/21 02:02:58;;;;;;;96.33;51.93;;;;;;;3.93;76.73;100451.78;123919;1106;104271;-73
2023/03/21 02:05:52;;;;;;;90.37;52.03;;;;;;;3.92;76.63;100448.27;123896;1105;102899;-73
2023/03/21 02:08:24;;;;;;;94.77;53.40;;;;;;;3.92;76.93;100452.58;124892;1105;104266;-73
2023/03/21 02:10:56;;;;;;;90.73;51.33;;;;;;;3.88;76.74;100450.58;123924;1104;102342;-73
2023/03/21 02:13:42;;;;;;;94.30;50.73;;;;;;;3.87;76.76;100449.70;124343;1105;104382;-73
2023/03/21 02:16:29;;;;;;;94.43;51.03;;;;;;;3.83;76.79;100449.41;123822;1105;104367;-73
2023/03/21 02:19:15;;;;;;;95.13;52.07;;;;;;;3.80;76.74;100450.11;123901;1105;104312;-73
2023/03/21 02:22:19;;;;;;;93.80;51.80;;;;;;;3.83;77.28;100452.89;123872;1105;104252;-73
2023/03/21 02:25:24;;;;;;;90.43;51.50;;;;;;;3.88;77.27;100454.09;123848;1105;104214;-73
2023/03/21 02:28:00;;;;;;;90.10;50.27;;;;;;;3.93;76.88;100444.88;123922;1105;104469;-73
2023/03/21 02:30:45;;;;;;;94.83;49.83;;;;;;;3.98;77.11;100436.48;123876;1105;104296;-73
2023/03/21 02:33:37;;;;;;;89.50;50.23;;;;;;;4.03;77.28;100441.14;123956;1105;104213;-73
2023/03/21 02:36:28;;;;;;;90.83;50.80;;;;;;;4.03;76.87;100437.66;123863;1104;104169;-73
2023/03/21 02:39:08;;;;;;;90.37;50.33;;;;;;;3.98;76.94;100452.95;123867;1105;104296;-73
2023/03/21 02:41:48;;;;;;;92.27;50.47;;;;;;;3.94;77.89;100444.09;123908;1105;104314;-73
2023/03/21 02:44:24;;;;;;;92.90;50.57;;;;;;;3.92;77.10;100450.86;123792;1105;104220;-73
2023/03/21 02:47:02;;;;;;;85.77;48.30;;;;;;;3.90;77.02;100455.08;123856;1105;101964;-73
2023/03/21 02:49:41;;;;;;;85.27;48.07;;;;;;;3.87;77.81;100449.70;123876;1105;101916;-73
2023/03/21 02:52:17;;;;;;;92.10;49.50;;;;;;;3.85;76.95;100451.31;124627;1105;104188;-73
2023/03/21 02:54:51;;;;;;;88.97;48.93;;;;;;;3.82;77.52;100450.20;123936;1105;104273;-73
2023/03/21 02:57:25;;;;;;;90.80;49.70;;;;;;;3.78;77.24;100454.31;123880;1106;104319;-73
2023/03/21 02:59:57;;;;;;;92.23;49.63;;;;;;;3.73;77.34;100456.63;123876;1105;102556;-73
2023/03/21 03:02:32;;;;;;;92.20;49.53;;;;;;;3.68;77.52;100439.00;124872;1105;103407;-73
2023/03/21 03:05:11;;;;;;;94.37;49.53;;;;;;;3.70;77.31;100443.45;123868;1105;104265;-73
2023/03/21 03:07:54;;;;;;;101.10;52.53;;;;;;;3.74;77.83;100436.75;123931;1105;104398;-73
2023/03/21 03:10:39;;;;;;;92.87;51.30;;;;;;;3.76;77.51;100443.84;123876;1105;104408;-73
2023/03/21 03:13:21;;;;;;;91.10;48.07;;;;;;;3.81;77.62;100449.31;123908;1105;104302;-73
2023/03/21 03:16:08;;;;;;;115.30;53.10;;;;;;;3.87;77.45;100448.81;123917;1105;110332;-74
2023/03/21 03:18:47;;;;;;;94.83;52.27;;;;;;;3.93;77.98;100452.67;123890;1105;104342;-73
2023/03/21 03:21:22;;;;;;;97.93;56.07;;;;;;;3.97;77.96;100440.77;123907;1103;104335;-73
2023/03/21 03:23:57;;;;;;;101.47;55.90;;;;;;;4.02;77.63;100446.23;123845;1105;104098;-74
2023/03/21 03:26:34;;;;;;;100.40;54.10;;;;;;;4.03;77.88;100441.14;123913;1105;104261;-73
2023/03/21 03:29:12;;;;;;;100.57;56.83;;;;;;;4.06;77.85;100443.03;123868;1105;104251;-73
2023/03/21 03:31:49;;;;;;;94.57;51.23;;;;;;;4.08;77.91;100434.55;124188;1105;104256;-73
2023/03/21 03:34:25;;;;;;;104.60;57.43;;;;;;;4.05;77.27;100436.03;123889;1105;104245;-73
2023/03/21 03:37:01;;;;;;;100.70;52.90;;;;;;;4.00;77.22;100433.16;124360;1103;104111;-73
2023/03/21 03:39:36;;;;;;;104.33;57.53;;;;;;;3.96;77.70;100436.39;123868;1105;104249;-73
2023/03/21 03:42:15;;;;;;;96.23;54.90;;;;;;;3.95;77.98;100440.67;124665;1105;104195;-73
2023/03/21 03:44:46;;;;;;;102.33;57.20;;;;;;;3.94;77.64;100445.77;123907;1105;104297;-73
2023/03/21 03:47:25;;;;;;;101.70;55.40;;;;;;;3.92;77.55;100445.67;123887;1105;101980;-73
2023/03/21 03:50:02;;;;;;;102.13;57.40;;;;;;;3.91;77.93;100445.58;123831;1105;104345;-73
2023/03/21 03:52:38;;;;;;;90.50;49.47;;;;;;;3.90;77.60;100446.40;124652;1105;104179;-73
2023/03/21 03:55:17;;;;;;;90.70;49.50;;;;;;;3.89;77.22;100444.59;123872;1105;104323;-73
2023/03/21 03:57:49;;;;;;;94.93;54.67;;;;;;;3.87;77.69;100449.70;124934;1105;104243;-73
2023/03/21 04:00:21;;;;;;;101.97;54.97;;;;;;;3.84;77.97;100446.91;123865;1105;101944;-73
2023/03/21 04:02:53;;;;;;;106.60;57.43;;;;;;;3.84;77.73;100444.31;124912;1105;104189;-73
2023/03/21 04:05:27;;;;;;;110.37;64.37;;;;;;;3.82;77.78;100450.20;123940;1105;104268;-73
2023/03/21 04:07:58;;;;;;;108.27;62.93;;;;;;;3.77;78.00;100443.05;123920;1103;104319;-73
2023/03/21 04:10:38;;;;;;;105.37;61.40;;;;;;;3.78;77.52;100450.01;123898;1105;104211;-74
2023/03/21 04:13:10;;;;;;;102.43;59.87;;;;;;;3.82;77.55;100445.93;125297;1105;104392;-73
2023/03/21 04:15:49;;;;;;;110.43;63.23;;;;;;;3.76;77.87;100441.24;123855;1104;104319;-73
2023/03/21 04:18:21;;;;;;;107.13;63.10;;;;;;;3.81;78.06;100458.81;123907;1106;104271;-73
2023/03/21 04:20:54;;;;;;;104.93;63.80;;;;;;;3.83;77.94;100450.30;123938;1105;104335;-73
2023/03/21 04:23:25;;;;;;;106.60;60.80;;;;;;;3.88;78.34;100451.50;123884;1106;104408;-73
2023/03/21 04:25:56;;;;;;;103.63;60.97;;;;;;;3.89;77.97;100453.27;123865;1105;104275;-73
2023/03/21 04:28:30;;;;;;;109.52;61.45;;;;;;;3.93;77.75;100451.78;124875;1105;101734;-73
2023/03/21 04:31:25;;;;;;;100.50;59.10;;;;;;;3.97;77.86;100448.55;123888;1105;104405;-74
2023/03/21 04:34:00;;;;;;;99.83;58.77;;;;;;;3.96;78.18;100446.78;123857;1105;104358;-73
2023/03/21 04:36:37;;;;;;;101.63;58.30;;;;;;;3.94;77.88;100444.09;123867;1106;101925;-73
2023/03/21 04:39:12;;;;;;;103.90;59.30;;;;;;;3.95;77.66;100445.86;123869;1105;104824;-75
2023/03/21 04:41:44;;;;;;;98.07;57.87;;;;;;;3.97;78.21;100445.95;123845;1106;104207;-72
2023/03/21 04:44:17;;;;;;;97.00;57.27;;;;;;;3.99;77.86;100444.37;123912;1104;104343;-72
2023/03/21 04:46:49;;;;;;;106.30;58.40;;;;;;;4.03;78.59;100443.73;124126;1105;104374;-72
2023/03/21 04:49:20;;;;;;;98.70;55.87;;;;;;;4.08;77.96;100444.02;123875;1105;104274;-72
2023/03/21 04:51:51;;;;;;;91.97;53.63;;;;;;;4.13;78.54;100450.41;123829;1105;103404;-72
2023/03/21 04:54:24;;;;;;;94.77;53.87;;;;;;;4.11;78.23;100451.98;123866;1105;104175;-72
2023/03/21 04:56:55;;;;;;;95.67;54.47;;;;;;;4.11;78.10;100451.98;123893;1105;104258;-73
2023/03/21 04:59:30;;;;;;;96.63;54.57;;;;;;;4.14;77.63;100452.17;123883;1105;104374;-73
2023/03/21 05:02:01;;;;;;;93.33;52.43;;;;;;;4.19;78.50;100447.27;124012;1105;104233;-73
2023/03/21 05:04:35;;;;;;;96.13;53.57;;;;;;;4.22;78.57;100458.72;123926;1105;104339;-73
2023/03/21 05:07:06;;;;;;;93.83;53.93;;;;;;;4.19;78.19;100442.06;123881;1104;104349;-73
2023/03/21 05:09:37;;;;;;;93.93;50.50;;;;;;;4.28;78.08;100459.09;123910;1105;104239;-73
2023/03/21 05:12:09;;;;;;;101.13;55.03;;;;;;;4.28;78.66;100461.69;124589;1105;104251;-73
2023/03/21 05:14:41;;;;;;;99.30;55.67;;;;;;;4.31;78.33;100459.28;123908;1105;104294;-74
2023/03/21 05:17:23;;;;;;;99.53;56.70;;;;;;;4.35;78.16;100459.46;123929;1105;103366;-74
2023/03/21 05:19:56;;;;;;;94.23;52.70;;;;;;;4.34;78.39;100458.58;123904;1105;104195;-73
2023/03/21 05:22:27;;;;;;;91.00;51.17;;;;;;;4.30;78.44;100452.31;123924;1105;104188;-75
2023/03/21 05:24:59;;;;;;;97.80;52.10;;;;;;;4.25;78.18;100458.02;123898;1105;104297;-73
2023/03/21 05:28:00;;;;;;;93.70;50.73;;;;;;;4.22;77.91;100457.84;123858;1105;105544;-74
2023/03/21 05:30:34;;;;;;;90.70;53.07;;;;;;;4.18;78.78;100467.16;123895;1104;101888;-72
2023/03/21 05:33:06;;;;;;;89.23;52.97;;;;;;;4.15;78.11;100469.56;123974;1105;104428;-72
2023/03/21 05:35:37;;;;;;;90.87;50.73;;;;;;;4.12;78.60;100462.47;123945;1105;104076;-72
2023/03/21 05:38:17;;;;;;;89.20;50.10;;;;;;;4.20;78.24;100464.66;123928;1105;104198;-72
2023/03/21 05:40:56;;;;;;;93.03;53.30;;;;;;;4.25;78.76;100469.30;123904;1105;104291;-73
2023/03/21 05:43:29;;;;;;;85.07;50.03;;;;;;;4.34;78.52;100474.16;124019;1105;102580;-73
2023/03/21 05:46:00;;;;;;;93.00;51.33;;;;;;;4.38;78.92;100472.63;123912;1105;104246;-73
2023/03/21 05:48:33;;;;;;;96.07;53.87;;;;;;;4.45;78.21;100474.80;123963;1105;104241;-73
2023/03/21 05:51:18;;;;;;;89.20;53.03;;;;;;;4.53;78.90;100476.16;123853;1105;104332;-73
2023/03/21 05:53:50;;;;;;;97.70;53.50;;;;;;;4.61;78.91;100474.01;124880;1105;101871;-73
2023/03/21 05:56:22;;;;;;;88.73;52.50;;;;;;;4.71;78.79;100473.76;123857;1105;104269;-74
2023/03/21 05:58:56;;;;;;;89.40;51.10;;;;;;;4.82;78.83;100470.07;123903;1106;102164;-73
2023/03/21 06:01:28;;;;;;;85.47;51.80;;;;;;;4.97;78.73;100475.28;123945;1103;104258;-74
2023/03/21 06:04:05;;;;;;;91.90;51.63;;;;;;;5.11;78.90;100472.55;123973;1106;104355;-75
2023/03/21 06:06:37;;;;;;;96.15;53.05;;;;;;;5.24;78.82;100475.05;124081;1105;104303;-76
2023/03/21 06:09:09;;;;;;;92.27;53.30;;;;;;;5.42;78.96;100472.57;124265;1105;104159;-76
2023/03/21 06:11:47;;;;;;;96.40;52.87;;;;;;;5.60;79.17;100471.83;124489;1105;104257;-75
2023/03/21 06:14:22;;;;;;;96.33;54.90;;;;;;;5.78;79.02;100466.71;124240;1105;104242;-75
2023/03/21 06:17:12;;;;;;;95.03;52.50;;;;;;;5.97;79.05;100469.55;123991;1105;104275;-75
2023/03/21 06:19:53;;;;;;;89.20;53.53;;;;;;;6.15;78.54;100468.72;124101;1105;104245;-78
2023/03/21 06:22:35;;;;;;;92.07;51.23;;;;;;;6.27;78.67;100477.19;124027;1105;102692;-76
2023/03/21 06:25:10;;;;;;;89.80;52.67;;;;;;;6.40;78.56;100470.89;124280;1105;104237;-77
2023/03/21 06:27:41;;;;;;;89.93;54.67;;;;;;;6.50;78.38;100469.66;124332;1105;101941;-76
2023/03/21 06:30:15;;;;;;;98.80;53.57;;;;;;;6.61;78.16;100476.34;124593;1105;102064;-76
2023/03/21 06:32:58;;;;;;;91.85;52.85;;;;;;;6.71;78.27;100465.54;124338;1105;104750;-77
2023/03/21 06:35:30;;;;;;;89.30;54.23;;;;;;;6.84;78.19;100472.29;125247;1105;104188;-75
2023/03/21 06:38:05;;;;;;;93.00;55.10;;;;;;;6.92;77.86;100470.95;125164;1105;102144;-76
2023/03/21 06:40:37;;;;;;;92.47;54.27;;;;;;;7.04;78.40;100474.98;124347;1105;104243;-76
2023/03/21 06:43:10;;;;;;;91.77;53.67;;;;;;;7.19;78.44;100473.12;124143;1105;104089;-76
2023/03/21 06:45:42;;;;;;;97.97;56.03;;;;;;;7.32;77.59;100466.78;124358;1105;104188;-78
2023/03/21 06:48:19;;;;;;;96.60;57.73;;;;;;;7.35;77.62;100470.45;124332;1105;104218;-77
2023/03/21 06:50:56;;;;;;;98.50;58.27;;;;;;;7.44;77.32;100472.59;124398;1105;107063;-76
2023/03/21 06:53:32;;;;;;;104.03;58.83;;;;;;;7.56;77.72;100465.34;124348;1106;101920;-81
2023/03/21 06:56:22;;;;;;;99.50;58.55;;;;;;;7.71;77.30;100464.27;124508;1105;101919;-75
2023/03/21 06:58:53;;;;;;;94.77;56.07;;;;;;;7.83;77.43;100462.22;124409;1105;102637;-75
2023/03/21 07:01:50;;;;;;;97.03;54.33;;;;;;;7.96;77.41;100460.17;124558;1105;101999;-77
2023/03/21 07:04:27;;;;;;;101.20;56.40;;;;;;;7.97;77.17;100462.85;125382;1105;104191;-77
2023/03/21 07:06:59;;;;;;;96.50;55.10;;;;;;;8.07;76.44;100456.31;124290;1105;104307;-77
2023/03/21 07:09:34;;;;;;;89.43;54.43;;;;;;;8.22;76.79;100456.12;124498;1105;104245;-78
2023/03/21 07:12:09;;;;;;;90.80;53.93;;;;;;;8.40;76.64;100456.05;124498;1105;104249;-76
2023/03/21 07:15:03;;;;;;;92.87;53.10;;;;;;;8.64;76.64;100454.50;126105;1104;101959;-81
2023/03/21 07:17:35;;;;;;;86.73;50.83;;;;;;;8.84;77.00;100459.69;125317;1105;101989;-73
2023/03/21 07:20:07;;;;;;;83.27;49.87;;;;;;;9.00;76.41;100462.09;125659;1104;104220;-76
2023/03/21 07:22:42;;;;;;;85.97;50.57;;;;;;;9.09;76.12;100458.98;124180;1105;104175;-76
2023/03/21 07:25:16;;;;;;;80.67;48.60;;;;;;;9.24;76.44;100458.72;124985;1105;101881;-75
2023/03/21 07:27:47;;;;;;;76.30;45.60;;;;;;;9.35;75.79;100448.69;124053;1104;104179;-73
2023/03/21 07:30:19;;;;;;;74.63;43.27;;;;;;;9.48;76.38;100450.93;123988;1105;104240;-73
2023/03/21 07:32:52;;;;;;;72.47;42.87;;;;;;;9.59;76.42;100459.21;124092;1105;104176;-74
2023/03/21 07:35:27;;;;;;;75.83;44.40;;;;;;;9.69;76.13;100463.98;124061;1106;101840;-74
2023/03/21 07:38:00;;;;;;;74.83;42.93;;;;;;;9.78;75.70;100462.55;123750;1105;104245;-73
2023/03/21 07:40:33;;;;;;;74.03;40.53;;;;;;;9.84;75.78;100458.42;123936;1105;102696;-73
2023/03/21 07:43:07;;;;;;;67.27;39.80;;;;;;;9.92;74.46;100457.83;124080;1103;104165;-73
2023/03/21 07:45:39;;;;;;;68.97;40.50;;;;;;;9.92;74.24;100453.47;124101;1105;101970;-74
2023/03/21 07:48:13;;;;;;;71.10;38.02;;;;;;;10.10;74.77;100453.27;124324;1105;101849;-76
2023/03/21 07:50:45;;;;;;;67.43;38.57;;;;;;;10.31;75.61;100461.02;124171;1105;104632;-73
2023/03/21 07:53:17;;;;;;;69.07;37.73;;;;;;;10.45;74.51;100453.67;124101;1105;104227;-76
2023/03/21 07:55:51;;;;;;;69.00;37.63;;;;;;;10.58;74.94;100452.36;124121;1105;104205;-75
2023/03/21 07:58:26;;;;;;;68.33;39.57;;;;;;;10.70;74.82;100451.91;124234;1105;104211;-74
2023/03/21 08:01:06;;;;;;;65.07;38.90;;;;;;;10.82;74.84;100452.33;124139;1105;104254;-76
2023/03/21 08:03:39;;;;;;;71.13;38.40;;;;;;;10.94;74.30;100458.00;124192;1105;102070;-75
2023/03/21 08:06:12;;;;;;;69.83;39.43;;;;;;;10.88;73.26;100456.91;124130;1105;104801;-75
2023/03/21 08:08:43;;;;;;;67.47;37.63;;;;;;;10.89;73.48;100449.08;124324;1105;102021;-74
2023/03/21 08:11:23;;;;;;;68.17;37.67;;;;;;;10.90;72.73;100450.84;124182;1105;102083;-74
2023/03/21 08:13:55;;;;;;;63.55;37.75;;;;;;;10.93;73.29;100444.81;124050;1105;104316;-73
2023/03/21 08:16:26;;;;;;;63.57;37.23;;;;;;;10.99;73.96;100447.64;123975;1106;104254;-70
2023/03/21 08:18:58;;;;;;;62.87;36.90;;;;;;;11.08;73.72;100450.58;123960;1103;104683;-70
2023/03/21 08:21:29;;;;;;;62.13;36.40;;;;;;;11.17;73.71;100454.34;123895;1105;104185;-71
2023/03/21 08:24:03;;;;;;;68.73;38.10;;;;;;;11.26;73.62;100446.75;123948;1105;104347;-72
2023/03/21 08:26:33;;;;;;;;;;;;;;;11.29;70.67;100454.73;123973;1105;104207;-71
2023/03/21 08:29:05;;;;;;;60.53;34.57;;;;;;;11.29;71.89;100452.11;124842;1105;104328;-73
2023/03/21 08:31:36;;;;;;;62.40;36.67;;;;;;;11.30;72.40;100446.02;124071;1106;104242;-73
2023/03/21 08:34:08;;;;;;;68.63;37.00;;;;;;;11.32;72.35;100445.20;124195;1105;104187;-73
2023/03/21 08:36:40;;;;;;;63.40;35.93;;;;;;;11.41;72.83;100449.88;124193;1105;102171;-73
2023/03/21 08:39:12;;;;;;;59.87;36.13;;;;;;;11.53;72.12;100437.95;124056;1105;104288;-71
2023/03/21 08:41:43;;;;;;;64.23;38.60;;;;;;;11.57;72.21;100438.09;123906;1106;105661;-71
2023/03/21 08:44:16;;;;;;;61.20;35.77;;;;;;;11.66;72.45;100437.49;124094;1105;102880;-73
2023/03/21 08:46:50;;;;;;;61.93;36.80;;;;;;;11.68;70.46;100438.42;123985;1105;102333;-71
2023/03/21 08:49:22;;;;;;;68.33;38.10;;;;;;;11.58;70.33;100434.63;124033;1105;102520;-73
2023/03/21 08:51:57;;;;;;;67.80;36.87;;;;;;;11.72;71.14;100436.77;124024;1105;104309;-71
2023/03/21 08:54:30;;;;;;;59.57;35.23;;;;;;;11.84;71.55;100431.88;124333;1104;101852;-71
2023/03/21 08:57:02;;;;;;;62.40;36.70;;;;;;;11.95;71.11;100432.22;124339;1105;102248;-72
2023/03/21 08:59:33;;;;;;;60.00;34.70;;;;;;;12.08;71.15;100422.97;124929;1104;101868;-73
2023/03/21 09:02:06;;;;;;;59.23;33.57;;;;;;;12.14;71.18;100421.39;124077;1105;104265;-73
2023/03/21 09:04:39;;;;;;;57.30;33.67;;;;;;;12.25;71.14;100423.41;124108;1105;101892;-73
2023/03/21 09:07:11;;;;;;;67.87;34.43;;;;;;;12.23;70.56;100426.00;124152;1105;102227;-73
2023/03/21 09:09:44;;;;;;;55.73;32.07;;;;;;;12.28;70.32;100418.23;124223;1105;101940;-70
2023/03/21 09:12:16;;;;;;;48.90;30.50;;;;;;;12.35;70.08;100423.70;124280;1103;104294;-71
2023/03/21 09:14:48;;;;;;;52.47;31.30;;;;;;;12.45;70.49;100426.59;125089;1105;101997;-71
2023/03/21 09:17:22;;;;;;;52.93;31.03;;;;;;;12.53;69.86;100417.18;124033;1105;104221;-71
2023/03/21 09:19:55;;;;;;;56.90;32.47;;;;;;;12.59;70.10;100420.85;124183;1106;104225;-71
2023/03/21 09:22:26;;;;;;;59.00;32.30;;;;;;;12.66;70.40;100414.00;125514;1104;102706;-72
2023/03/21 09:25:07;;;;;;;57.53;32.60;;;;;;;12.67;69.75;100420.14;124446;1105;104175;-74
2023/03/21 09:27:39;;;;;;;51.67;32.43;;;;;;;12.73;69.88;100413.31;123963;1104;104332;-73
2023/03/21 09:30:20;;;;;;;60.27;33.97;;;;;;;12.83;69.92;100417.06;124036;1105;104191;-73
2023/03/21 09:32:56;;;;;;;53.20;31.33;;;;;;;12.95;69.88;100412.11;124855;1105;101868;-73
2023/03/21 09:35:28;;;;;;;55.67;31.60;;;;;;;13.05;69.53;100407.94;124319;1105;104176;-73
2023/03/21 09:38:00;;;;;;;58.70;33.27;;;;;;;13.05;69.28;100407.06;124085;1105;104251;-73
2023/03/21 09:40:49;;;;;;;56.20;31.77;;;;;;;13.07;69.60;100405.34;124046;1105;104207;-72
2023/03/21 09:43:33;;;;;;;56.00;31.47;;;;;;;13.20;69.34;100407.42;124075;1104;104246;-72
2023/03/21 09:46:14;;;;;;;55.45;30.97;;;;;;;13.23;68.48;100396.96;125136;1105;104354;-73
2023/03/21 09:48:56;;;;;;;56.03;30.93;;;;;;;13.25;67.92;100404.91;125350;1104;101987;-71
2023/03/21 09:51:33;;;;;;;50.77;28.63;;;;;;;13.38;67.86;100395.56;123960;1105;104399;-72
2023/03/21 09:54:13;;;;;;;54.43;31.53;;;;;;;13.46;67.88;100388.70;123983;1105;101952;-73
2023/03/21 09:56:46;;;;;;;56.17;30.63;;;;;;;13.53;67.49;100387.99;124005;1105;104205;-72
2023/03/21 09:59:28;;;;;;;55.38;30.17;;;;;;;13.70;68.54;100383.09;124171;1105;104258;-74
2023/03/21 10:02:02;;;;;;;52.03;29.10;;;;;;;13.88;67.77;100382.55;125301;1103;104239;-72
2023/03/21 10:04:35;;;;;;;53.48;27.52;;;;;;;13.98;66.33;100379.26;123932;1105;108216;-75
2023/03/21 10:07:14;;;;;;;45.43;26.12;;;;;;;14.00;67.21;100374.02;124502;1105;104220;-73
2023/03/21 10:09:53;;;;;;;48.00;26.50;;;;;;;14.11;67.37;100379.50;124038;1105;102009;-74
2023/03/21 10:12:29;;;;;;;49.10;28.57;;;;;;;13.98;64.03;100371.34;124109;1105;104217;-74
2023/03/21 10:15:13;;;;;;;45.37;26.13;;;;;;;14.03;66.06;100367.03;125225;1104;117845;-74
2023/03/21 10:17:53;;;;;;;39.55;22.25;;;;;;;14.17;65.76;100366.42;123978;1105;104044;-73
2023/03/21 10:20:30;;;;;;;36.57;20.80;;;;;;;14.29;64.40;100365.75;124128;1105;101922;-76
2023/03/21 10:23:06;;;;;;;31.67;18.73;;;;;;;14.47;63.82;100360.80;124201;1105;101788;-76
2023/03/21 10:25:42;;;;;;;34.07;19.07;;;;;;;14.57;63.22;100359.23;124213;1105;102184;-76
2023/03/21 10:28:24;;;;;;;;;;;;;;;14.74;61.93;100354.27;125337;1104;105013;-78
2023/03/21 10:31:08;;;;;;;27.20;13.80;;;;;;;14.88;63.36;100355.37;125156;1105;101967;-77
2023/03/21 10:33:47;;;;;;;25.30;12.03;;;;;;;14.99;61.95;100352.90;124805;1105;101858;-75
2023/03/21 10:36:24;;;;;;;26.53;12.43;;;;;;;15.10;60.75;100345.14;124273;1105;102058;-74
2023/03/21 10:39:00;;;;;;;33.67;12.00;;;;;;;15.21;60.48;100342.65;124192;1105;104178;-74
2023/03/21 10:41:32;;;;;;;29.23;11.97;;;;;;;15.22;60.00;100339.12;124179;1105;102272;-73
2023/03/21 10:44:13;;;;;;;25.13;11.30;;;;;;;15.23;58.99;100332.98;124108;1105;102498;-74
2023/03/21 10:46:57;;;;;;;26.23;11.73;;;;;;;15.32;60.26;100329.55;125116;1105;101943;-74
2023/03/21 10:49:31;;;;;;;25.97;11.87;;;;;;;15.42;59.61;100328.82;124019;1105;104266;-73
2023/03/21 10:52:11;;;;;;;24.50;11.70;;;;;;;15.44;59.42;100333.27;123992;1105;101915;-73
2023/03/21 10:54:47;;;;;;;22.80;9.93;;;;;;;15.46;58.18;100328.87;124188;1105;104258;-75
2023/03/21 10:57:26;;;;;;;28.93;10.73;;;;;;;15.60;58.67;100328.18;124079;1105;102141;-74
2023/03/21 11:00:07;;;;;;;24.33;10.63;;;;;;;15.70;58.34;100322.11;125354;1104;101965;-74
2023/03/21 11:02:49;;;;;;;22.63;11.33;;;;;;;15.77;57.67;100316.08;126878;1104;101629;-75
2023/03/21 11:05:28;;;;;;;22.73;11.90;;;;;;;15.86;56.86;100317.91;124373;1105;102044;-74
2023/03/21 11:08:23;;;;;;;21.40;11.27;;;;;;;15.94;57.18;100315.35;124265;1105;104255;-73
2023/03/21 11:11:03;;;;;;;21.87;11.33;;;;;;;16.00;57.28;100312.77;124034;1105;101961;-72
2023/03/21 11:13:42;;;;;;;24.20;12.25;;;;;;;16.09;57.46;100311.99;124221;1105;102081;-75
2023/03/21 11:16:24;;;;;;;23.30;11.30;;;;;;;16.07;56.06;100308.45;124124;1105;109883;-75
2023/03/21 11:19:01;;;;;;;21.60;10.70;;;;;;;16.13;56.11;100308.52;124043;1105;101997;-76
2023/03/21 11:21:38;;;;;;;24.57;11.10;;;;;;;16.14;55.20;100297.03;124116;1104;104210;-76
2023/03/21 11:24:15;;;;;;;24.70;11.10;;;;;;;16.31;55.39;100303.41;124165;1105;104249;-74
2023/03/21 11:26:51;;;;;;;22.07;10.93;;;;;;;16.41;55.13;100304.36;124074;1105;104221;-77
2023/03/21 11:29:37;;;;;;;20.30;11.00;;;;;;;16.48;55.34;100298.22;124021;1105;104175;-75
2023/03/21 11:32:20;;;;;;;20.83;10.37;;;;;;;16.54;54.83;100292.98;124569;1105;102041;-74
2023/03/21 11:34:52;;;;;;;21.67;10.90;;;;;;;16.59;54.72;100295.66;126114;1103;102502;-80
2023/03/21 11:37:34;;;;;;;24.23;10.93;;;;;;;16.61;54.59;100293.94;117493;1103;10001718;-77